sensor_id;sensor_type;location;lat;lon;timestamp;temperature;humidity
14008;DHT22;61651;45.508;12.232;2023-06-19T00:00:36;25.20;99.90
14008;DHT22;61651;45.508;12.232;2023-06-19T00:03:39;25.20;99.90
14008;DHT22;61651;45.508;12.232;2023-06-19T00:06:41;25.10;99.90
14008;DHT22;61651;45.508;12.232;2023-06-19T00:09:44;25.10;99.90
14008;DHT22;61651;45.508;12.232;2023-06-19T00:12:46;25.10;99.90
14008;DHT22;61651;45.508;12.232;2023-06-19T00:15:48;25.10;99.90
14008;DHT22;61651;45.508;12.232;2023-06-19T00:18:50;25.10;99.90
14008;DHT22;61651;45.508;12.232;2023-06-19T00:21:56;25.10;99.90
14008;DHT22;61651;45.508;12.232;2023-06-19T00:24:59;25.10;99.90
14008;DHT22;61651;45.508;12.232;2023-06-19T00:28:01;25.10;99.90
14008;DHT22;61651;45.508;12.232;2023-06-19T00:31:03;25.10;99.90
14008;DHT22;61651;45.508;12.232;2023-06-19T00:34:07;25.00;99.90
14008;DHT22;61651;45.508;12.232;2023-06-19T00:37:09;25.00;99.90
14008;DHT22;61651;45.508;12.232;2023-06-19T00:40:24;25.00;99.90
14008;DHT22;61651;45.508;12.232;2023-06-19T00:43:28;25.00;99.90
14008;DHT22;61651;45.508;12.232;2023-06-19T00:46:30;24.90;99.90
14008;DHT22;61651;45.508;12.232;2023-06-19T00:49:32;24.90;99.90
14008;DHT22;61651;45.508;12.232;2023-06-19T00:52:34;24.90;99.90
14008;DHT22;61651;45.508;12.232;2023-06-19T00:55:38;24.90;99.90
14008;DHT22;61651;45.508;12.232;2023-06-19T00:58:40;24.90;99.90
14008;DHT22;61651;45.508;12.232;2023-06-19T01:01:42;24.90;99.90
14008;DHT22;61651;45.508;12.232;2023-06-19T01:04:44;24.90;99.90
14008;DHT22;61651;45.508;12.232;2023-06-19T01:07:52;24.80;99.90
14008;DHT22;61651;45.508;12.232;2023-06-19T01:10:59;24.80;99.90
14008;DHT22;61651;45.508;12.232;2023-06-19T01:14:06;24.80;99.90
14008;DHT22;61651;45.508;12.232;2023-06-19T01:17:10;24.80;99.90
14008;DHT22;61651;45.508;12.232;2023-06-19T01:20:12;24.70;99.90
14008;DHT22;61651;45.508;12.232;2023-06-19T01:23:16;24.70;99.90
14008;DHT22;61651;45.508;12.232;2023-06-19T01:26:21;24.70;99.90
14008;DHT22;61651;45.508;12.232;2023-06-19T01:29:28;24.70;99.90
14008;DHT22;61651;45.508;12.232;2023-06-19T01:32:36;24.70;99.90
14008;DHT22;61651;45.508;12.232;2023-06-19T01:35:43;24.70;99.90
14008;DHT22;61651;45.508;12.232;2023-06-19T01:38:48;24.70;99.90
14008;DHT22;61651;45.508;12.232;2023-06-19T01:41:51;24.60;99.90
14008;DHT22;61651;45.508;12.232;2023-06-19T01:44:54;24.60;99.90
14008;DHT22;61651;45.508;12.232;2023-06-19T01:47:56;24.60;99.90
14008;DHT22;61651;45.508;12.232;2023-06-19T01:50:59;24.60;99.90
14008;DHT22;61651;45.508;12.232;2023-06-19T01:54:03;24.60;99.90
14008;DHT22;61651;45.508;12.232;2023-06-19T01:57:06;24.60;99.90
14008;DHT22;61651;45.508;12.232;2023-06-19T02:00:09;24.60;99.90
14008;DHT22;61651;45.508;12.232;2023-06-19T02:03:11;24.60;99.90
14008;DHT22;61651;45.508;12.232;2023-06-19T02:06:13;24.60;99.90
14008;DHT22;61651;45.508;12.232;2023-06-19T02:09:16;24.60;99.90
14008;DHT22;61651;45.508;12.232;2023-06-19T02:12:18;24.60;99.90
14008;DHT22;61651;45.508;12.232;2023-06-19T02:15:20;24.50;99.90
14008;DHT22;61651;45.508;12.232;2023-06-19T02:18:22;24.40;99.90
14008;DHT22;61651;45.508;12.232;2023-06-19T02:21:24;24.50;99.90
14008;DHT22;61651;45.508;12.232;2023-06-19T02:24:27;24.50;99.90
14008;DHT22;61651;45.508;12.232;2023-06-19T02:27:29;24.50;99.90
14008;DHT22;61651;45.508;12.232;2023-06-19T02:30:31;24.50;99.90
14008;DHT22;61651;45.508;12.232;2023-06-19T02:33:33;24.40;99.90
14008;DHT22;61651;45.508;12.232;2023-06-19T02:36:35;24.40;99.90
14008;DHT22;61651;45.508;12.232;2023-06-19T02:39:39;24.40;99.90
14008;DHT22;61651;45.508;12.232;2023-06-19T02:42:41;24.40;99.90
14008;DHT22;61651;45.508;12.232;2023-06-19T02:45:43;24.40;99.90
14008;DHT22;61651;45.508;12.232;2023-06-19T02:48:45;24.40;99.90
14008;DHT22;61651;45.508;12.232;2023-06-19T02:51:47;24.40;99.90
14008;DHT22;61651;45.508;12.232;2023-06-19T02:54:50;24.40;99.90
14008;DHT22;61651;45.508;12.232;2023-06-19T02:57:52;24.30;99.90
14008;DHT22;61651;45.508;12.232;2023-06-19T03:00:54;24.30;99.90
14008;DHT22;61651;45.508;12.232;2023-06-19T03:03:56;24.30;99.90
14008;DHT22;61651;45.508;12.232;2023-06-19T03:06:58;24.20;99.90
14008;DHT22;61651;45.508;12.232;2023-06-19T03:10:01;24.20;99.90
14008;DHT22;61651;45.508;12.232;2023-06-19T03:13:03;24.10;99.90
14008;DHT22;61651;45.508;12.232;2023-06-19T03:16:05;24.10;99.90
14008;DHT22;61651;45.508;12.232;2023-06-19T03:19:07;24.10;99.90
14008;DHT22;61651;45.508;12.232;2023-06-19T03:22:09;24.10;99.90
14008;DHT22;61651;45.508;12.232;2023-06-19T03:25:13;24.10;99.90
14008;DHT22;61651;45.508;12.232;2023-06-19T03:28:15;24.00;99.90
14008;DHT22;61651;45.508;12.232;2023-06-19T03:31:17;24.00;99.90
14008;DHT22;61651;45.508;12.232;2023-06-19T03:34:18;24.00;99.90
14008;DHT22;61651;45.508;12.232;2023-06-19T03:37:20;24.00;99.90
14008;DHT22;61651;45.508;12.232;2023-06-19T03:40:24;24.00;99.90
14008;DHT22;61651;45.508;12.232;2023-06-19T03:43:26;24.00;99.90
14008;DHT22;61651;45.508;12.232;2023-06-19T03:46:28;24.00;99.90
14008;DHT22;61651;45.508;12.232;2023-06-19T03:49:30;24.00;99.90
14008;DHT22;61651;45.508;12.232;2023-06-19T03:52:32;24.00;99.90
14008;DHT22;61651;45.508;12.232;2023-06-19T03:55:35;24.00;99.90
14008;DHT22;61651;45.508;12.232;2023-06-19T03:58:37;24.00;99.90
14008;DHT22;61651;45.508;12.232;2023-06-19T04:01:39;24.00;99.90
14008;DHT22;61651;45.508;12.232;2023-06-19T04:04:42;24.00;99.90
14008;DHT22;61651;45.508;12.232;2023-06-19T04:07:44;24.00;99.90
14008;DHT22;61651;45.508;12.232;2023-06-19T04:10:47;24.10;99.90
14008;DHT22;61651;45.508;12.232;2023-06-19T04:13:49;24.20;99.90
14008;DHT22;61651;45.508;12.232;2023-06-19T04:16:51;24.20;99.90
14008;DHT22;61651;45.508;12.232;2023-06-19T04:19:53;24.20;99.90
14008;DHT22;61651;45.508;12.232;2023-06-19T04:22:55;24.30;99.90
14008;DHT22;61651;45.508;12.232;2023-06-19T04:25:58;24.30;99.90
14008;DHT22;61651;45.508;12.232;2023-06-19T05:40:20;25.20;99.90
14008;DHT22;61651;45.508;12.232;2023-06-19T05:43:22;25.30;99.90
14008;DHT22;61651;45.508;12.232;2023-06-19T05:46:25;25.30;99.90
14008;DHT22;61651;45.508;12.232;2023-06-19T05:49:27;25.40;99.90
14008;DHT22;61651;45.508;12.232;2023-06-19T05:52:29;25.40;99.90
14008;DHT22;61651;45.508;12.232;2023-06-19T05:55:33;25.40;99.90
14008;DHT22;61651;45.508;12.232;2023-06-19T05:58:35;25.40;99.90
14008;DHT22;61651;45.508;12.232;2023-06-19T06:01:37;25.40;99.90
14008;DHT22;61651;45.508;12.232;2023-06-19T06:04:39;25.50;99.90
14008;DHT22;61651;45.508;12.232;2023-06-19T06:07:41;25.60;99.90
14008;DHT22;61651;45.508;12.232;2023-06-19T06:10:45;25.60;99.90
14008;DHT22;61651;45.508;12.232;2023-06-19T06:13:47;25.70;99.90
14008;DHT22;61651;45.508;12.232;2023-06-19T06:16:49;25.70;99.90
14008;DHT22;61651;45.508;12.232;2023-06-19T06:19:51;25.80;99.90
14008;DHT22;61651;45.508;12.232;2023-06-19T06:22:53;25.90;99.90
14008;DHT22;61651;45.508;12.232;2023-06-19T06:25:56;25.90;99.90
14008;DHT22;61651;45.508;12.232;2023-06-19T06:29:02;26.10;99.90
14008;DHT22;61651;45.508;12.232;2023-06-19T06:32:05;26.10;99.90
14008;DHT22;61651;45.508;12.232;2023-06-19T06:35:08;26.20;99.90
14008;DHT22;61651;45.508;12.232;2023-06-19T06:38:10;26.30;99.90
14008;DHT22;61651;45.508;12.232;2023-06-19T06:41:14;26.30;99.90
14008;DHT22;61651;45.508;12.232;2023-06-19T06:44:16;26.40;99.90
14008;DHT22;61651;45.508;12.232;2023-06-19T06:47:18;26.40;99.90
14008;DHT22;61651;45.508;12.232;2023-06-19T06:50:20;26.40;99.90
14008;DHT22;61651;45.508;12.232;2023-06-19T06:53:22;26.50;99.90
14008;DHT22;61651;45.508;12.232;2023-06-19T06:56:25;26.60;99.90
14008;DHT22;61651;45.508;12.232;2023-06-19T06:59:27;26.60;99.90
14008;DHT22;61651;45.508;12.232;2023-06-19T07:02:29;26.70;99.90
14008;DHT22;61651;45.508;12.232;2023-06-19T07:05:31;26.70;99.90
14008;DHT22;61651;45.508;12.232;2023-06-19T07:08:33;26.70;99.90
14008;DHT22;61651;45.508;12.232;2023-06-19T07:11:36;26.80;99.90
14008;DHT22;61651;45.508;12.232;2023-06-19T07:14:38;26.90;99.90
14008;DHT22;61651;45.508;12.232;2023-06-19T07:17:40;27.00;99.90
14008;DHT22;61651;45.508;12.232;2023-06-19T07:20:42;27.10;99.90
14008;DHT22;61651;45.508;12.232;2023-06-19T07:23:45;27.10;99.90
14008;DHT22;61651;45.508;12.232;2023-06-19T07:26:50;27.10;99.90
14008;DHT22;61651;45.508;12.232;2023-06-19T07:29:52;27.20;99.90
14008;DHT22;61651;45.508;12.232;2023-06-19T07:32:54;27.20;99.90
14008;DHT22;61651;45.508;12.232;2023-06-19T07:35:56;27.30;99.90
14008;DHT22;61651;45.508;12.232;2023-06-19T07:38:58;27.40;99.90
14008;DHT22;61651;45.508;12.232;2023-06-19T07:42:01;27.40;99.90
14008;DHT22;61651;45.508;12.232;2023-06-19T07:45:04;27.50;99.90
14008;DHT22;61651;45.508;12.232;2023-06-19T07:48:06;27.50;99.90
14008;DHT22;61651;45.508;12.232;2023-06-19T07:51:08;27.50;99.90
14008;DHT22;61651;45.508;12.232;2023-06-19T07:54:10;27.50;99.90
14008;DHT22;61651;45.508;12.232;2023-06-19T07:57:14;27.50;99.90
14008;DHT22;61651;45.508;12.232;2023-06-19T08:00:16;27.50;99.90
14008;DHT22;61651;45.508;12.232;2023-06-19T08:03:19;27.50;99.90
14008;DHT22;61651;45.508;12.232;2023-06-19T08:06:22;27.50;99.90
14008;DHT22;61651;45.508;12.232;2023-06-19T08:09:23;27.60;99.90
14008;DHT22;61651;45.508;12.232;2023-06-19T08:12:27;27.70;99.90
14008;DHT22;61651;45.508;12.232;2023-06-19T08:15:29;27.80;99.90
14008;DHT22;61651;45.508;12.232;2023-06-19T08:18:31;27.70;99.90
14008;DHT22;61651;45.508;12.232;2023-06-19T08:21:33;27.90;99.90
14008;DHT22;61651;45.508;12.232;2023-06-19T08:24:36;27.90;99.90
14008;DHT22;61651;45.508;12.232;2023-06-19T08:27:40;28.10;99.90
14008;DHT22;61651;45.508;12.232;2023-06-19T08:30:44;28.20;99.90
14008;DHT22;61651;45.508;12.232;2023-06-19T08:33:46;28.30;99.90
14008;DHT22;61651;45.508;12.232;2023-06-19T08:36:50;28.40;99.90
14008;DHT22;61651;45.508;12.232;2023-06-19T08:39:51;28.40;99.90
14008;DHT22;61651;45.508;12.232;2023-06-19T08:42:55;28.50;99.90
14008;DHT22;61651;45.508;12.232;2023-06-19T08:46:10;28.60;99.90
14008;DHT22;61651;45.508;12.232;2023-06-19T08:49:13;28.70;99.90
14008;DHT22;61651;45.508;12.232;2023-06-19T08:52:15;28.90;99.90
14008;DHT22;61651;45.508;12.232;2023-06-19T08:55:17;29.00;99.90
14008;DHT22;61651;45.508;12.232;2023-06-19T08:58:23;29.00;99.90
14008;DHT22;61651;45.508;12.232;2023-06-19T09:01:26;29.10;99.90
14008;DHT22;61651;45.508;12.232;2023-06-19T09:04:28;29.20;99.90
14008;DHT22;61651;45.508;12.232;2023-06-19T09:07:31;29.20;99.90
14008;DHT22;61651;45.508;12.232;2023-06-19T09:10:33;29.20;99.90
14008;DHT22;61651;45.508;12.232;2023-06-19T09:13:37;29.20;99.90
14008;DHT22;61651;45.508;12.232;2023-06-19T09:16:40;29.30;99.90
14008;DHT22;61651;45.508;12.232;2023-06-19T09:19:47;29.40;99.90
14008;DHT22;61651;45.508;12.232;2023-06-19T09:22:54;29.40;99.90
14008;DHT22;61651;45.508;12.232;2023-06-19T09:25:58;29.40;99.90
14008;DHT22;61651;45.508;12.232;2023-06-19T09:29:11;29.40;99.90
14008;DHT22;61651;45.508;12.232;2023-06-19T09:32:17;29.50;99.90
14008;DHT22;61651;45.508;12.232;2023-06-19T09:35:19;29.60;99.90
14008;DHT22;61651;45.508;12.232;2023-06-19T09:38:25;29.60;99.90
14008;DHT22;61651;45.508;12.232;2023-06-19T09:41:29;29.70;99.90
14008;DHT22;61651;45.508;12.232;2023-06-19T09:44:39;30.00;99.90
14008;DHT22;61651;45.508;12.232;2023-06-19T09:47:44;30.20;99.90
14008;DHT22;61651;45.508;12.232;2023-06-19T09:50:48;30.40;99.90
14008;DHT22;61651;45.508;12.232;2023-06-19T09:53:50;30.70;99.90
14008;DHT22;61651;45.508;12.232;2023-06-19T09:56:52;30.80;99.90
14008;DHT22;61651;45.508;12.232;2023-06-19T10:00:00;30.70;99.90
14008;DHT22;61651;45.508;12.232;2023-06-19T10:03:12;30.30;99.90
14008;DHT22;61651;45.508;12.232;2023-06-19T10:06:15;30.40;99.90
14008;DHT22;61651;45.508;12.232;2023-06-19T10:09:17;30.60;99.90
14008;DHT22;61651;45.508;12.232;2023-06-19T10:12:19;30.60;99.90
14008;DHT22;61651;45.508;12.232;2023-06-19T10:15:25;30.70;99.90
14008;DHT22;61651;45.508;12.232;2023-06-19T10:18:27;30.80;99.90
14008;DHT22;61651;45.508;12.232;2023-06-19T10:21:44;30.90;99.90
14008;DHT22;61651;45.508;12.232;2023-06-19T10:24:49;30.90;99.90
14008;DHT22;61651;45.508;12.232;2023-06-19T10:27:52;31.00;99.90
14008;DHT22;61651;45.508;12.232;2023-06-19T10:30:57;31.00;99.90
14008;DHT22;61651;45.508;12.232;2023-06-19T10:34:00;31.10;99.90
14008;DHT22;61651;45.508;12.232;2023-06-19T10:37:04;31.30;99.90
14008;DHT22;61651;45.508;12.232;2023-06-19T10:40:07;31.40;99.90
14008;DHT22;61651;45.508;12.232;2023-06-19T10:43:11;31.50;99.90
14008;DHT22;61651;45.508;12.232;2023-06-19T10:46:14;31.60;99.90
14008;DHT22;61651;45.508;12.232;2023-06-19T10:49:16;31.70;99.90
14008;DHT22;61651;45.508;12.232;2023-06-19T10:52:19;31.80;99.90
14008;DHT22;61651;45.508;12.232;2023-06-19T10:55:22;31.90;99.90
14008;DHT22;61651;45.508;12.232;2023-06-19T10:58:23;32.10;99.90
14008;DHT22;61651;45.508;12.232;2023-06-19T11:01:34;32.50;99.90
14008;DHT22;61651;45.508;12.232;2023-06-19T11:04:38;32.60;99.90
14008;DHT22;61651;45.508;12.232;2023-06-19T11:07:40;32.30;99.90
14008;DHT22;61651;45.508;12.232;2023-06-19T11:10:42;32.00;99.90
14008;DHT22;61651;45.508;12.232;2023-06-19T11:13:44;32.10;99.90
14008;DHT22;61651;45.508;12.232;2023-06-19T11:16:48;32.40;99.90
14008;DHT22;61651;45.508;12.232;2023-06-19T11:19:50;32.40;99.90
14008;DHT22;61651;45.508;12.232;2023-06-19T11:22:56;31.60;99.90
14008;DHT22;61651;45.508;12.232;2023-06-19T11:26:02;31.80;99.90
14008;DHT22;61651;45.508;12.232;2023-06-19T11:29:14;32.00;99.90
14008;DHT22;61651;45.508;12.232;2023-06-19T11:32:18;32.50;99.90
14008;DHT22;61651;45.508;12.232;2023-06-19T11:35:25;33.00;99.90
14008;DHT22;61651;45.508;12.232;2023-06-19T11:38:36;33.30;99.90
14008;DHT22;61651;45.508;12.232;2023-06-19T11:41:39;33.60;99.90
14008;DHT22;61651;45.508;12.232;2023-06-19T11:44:54;33.80;99.90
14008;DHT22;61651;45.508;12.232;2023-06-19T11:47:57;34.00;99.90
14008;DHT22;61651;45.508;12.232;2023-06-19T11:50:59;34.10;99.90
14008;DHT22;61651;45.508;12.232;2023-06-19T11:54:01;34.20;99.90
14008;DHT22;61651;45.508;12.232;2023-06-19T11:57:04;34.30;99.90
14008;DHT22;61651;45.508;12.232;2023-06-19T12:00:14;34.40;99.90
14008;DHT22;61651;45.508;12.232;2023-06-19T12:03:17;34.40;99.90
14008;DHT22;61651;45.508;12.232;2023-06-19T12:06:20;34.40;99.90
14008;DHT22;61651;45.508;12.232;2023-06-19T12:09:22;33.40;99.90
14008;DHT22;61651;45.508;12.232;2023-06-19T12:12:25;32.40;99.90
14008;DHT22;61651;45.508;12.232;2023-06-19T12:15:27;32.00;99.90
14008;DHT22;61651;45.508;12.232;2023-06-19T12:18:31;31.60;99.90
14008;DHT22;61651;45.508;12.232;2023-06-19T12:21:33;31.80;99.90
14008;DHT22;61651;45.508;12.232;2023-06-19T12:24:35;32.00;99.90
14008;DHT22;61651;45.508;12.232;2023-06-19T12:27:37;32.20;99.90
14008;DHT22;61651;45.508;12.232;2023-06-19T12:30:40;32.50;99.90
14008;DHT22;61651;45.508;12.232;2023-06-19T12:33:43;33.00;99.90
14008;DHT22;61651;45.508;12.232;2023-06-19T12:36:45;33.40;99.90
14008;DHT22;61651;45.508;12.232;2023-06-19T12:39:47;33.90;99.90
14008;DHT22;61651;45.508;12.232;2023-06-19T12:42:49;34.40;99.90
14008;DHT22;61651;45.508;12.232;2023-06-19T12:45:52;34.60;99.90
14008;DHT22;61651;45.508;12.232;2023-06-19T12:48:55;34.70;99.90
14008;DHT22;61651;45.508;12.232;2023-06-19T12:51:57;34.80;99.90
14008;DHT22;61651;45.508;12.232;2023-06-19T12:54:59;35.10;99.90
14008;DHT22;61651;45.508;12.232;2023-06-19T12:58:02;35.30;99.90
14008;DHT22;61651;45.508;12.232;2023-06-19T13:01:04;35.60;99.90
14008;DHT22;61651;45.508;12.232;2023-06-19T13:04:07;35.90;99.90
14008;DHT22;61651;45.508;12.232;2023-06-19T13:07:09;36.00;99.90
14008;DHT22;61651;45.508;12.232;2023-06-19T13:10:12;36.00;99.90
14008;DHT22;61651;45.508;12.232;2023-06-19T13:13:14;36.10;99.90
14008;DHT22;61651;45.508;12.232;2023-06-19T13:16:16;36.10;99.90
14008;DHT22;61651;45.508;12.232;2023-06-19T13:19:20;36.40;99.90
14008;DHT22;61651;45.508;12.232;2023-06-19T13:22:22;36.60;99.90
14008;DHT22;61651;45.508;12.232;2023-06-19T13:25:24;36.60;99.90
14008;DHT22;61651;45.508;12.232;2023-06-19T13:28:26;36.60;99.90
14008;DHT22;61651;45.508;12.232;2023-06-19T13:31:28;36.50;99.90
14008;DHT22;61651;45.508;12.232;2023-06-19T13:34:32;36.40;99.90
14008;DHT22;61651;45.508;12.232;2023-06-19T13:37:35;36.60;99.90
14008;DHT22;61651;45.508;12.232;2023-06-19T13:40:37;36.80;99.90
14008;DHT22;61651;45.508;12.232;2023-06-19T13:43:39;37.00;99.90
14008;DHT22;61651;45.508;12.232;2023-06-19T13:46:42;37.20;99.90
14008;DHT22;61651;45.508;12.232;2023-06-19T13:49:46;37.30;99.90
14008;DHT22;61651;45.508;12.232;2023-06-19T13:52:48;37.60;99.90
14008;DHT22;61651;45.508;12.232;2023-06-19T13:55:50;37.80;99.90
14008;DHT22;61651;45.508;12.232;2023-06-19T13:58:52;38.00;99.90
14008;DHT22;61651;45.508;12.232;2023-06-19T14:01:54;38.20;99.90
14008;DHT22;61651;45.508;12.232;2023-06-19T14:04:57;38.40;99.90
14008;DHT22;61651;45.508;12.232;2023-06-19T14:08:00;38.30;99.90
14008;DHT22;61651;45.508;12.232;2023-06-19T14:11:03;38.60;99.90
14008;DHT22;61651;45.508;12.232;2023-06-19T14:14:06;38.70;99.90
14008;DHT22;61651;45.508;12.232;2023-06-19T14:17:08;38.80;98.50
14008;DHT22;61651;45.508;12.232;2023-06-19T14:20:12;38.60;98.20
14008;DHT22;61651;45.508;12.232;2023-06-19T14:23:14;38.50;98.70
14008;DHT22;61651;45.508;12.232;2023-06-19T14:26:16;38.50;99.60
14008;DHT22;61651;45.508;12.232;2023-06-19T14:29:18;38.50;99.70
14008;DHT22;61651;45.508;12.232;2023-06-19T14:32:21;38.50;99.10
14008;DHT22;61651;45.508;12.232;2023-06-19T14:35:25;38.50;99.90
14008;DHT22;61651;45.508;12.232;2023-06-19T14:38:27;38.60;99.90
14008;DHT22;61651;45.508;12.232;2023-06-19T14:41:33;38.60;99.80
14008;DHT22;61651;45.508;12.232;2023-06-19T14:44:36;38.20;98.50
14008;DHT22;61651;45.508;12.232;2023-06-19T14:47:38;38.30;99.30
14008;DHT22;61651;45.508;12.232;2023-06-19T14:50:42;38.20;99.80
14008;DHT22;61651;45.508;12.232;2023-06-19T14:53:44;37.60;98.80
14008;DHT22;61651;45.508;12.232;2023-06-19T14:56:46;37.60;99.30
14008;DHT22;61651;45.508;12.232;2023-06-19T14:59:49;37.70;98.00
14008;DHT22;61651;45.508;12.232;2023-06-19T15:02:51;37.80;98.40
14008;DHT22;61651;45.508;12.232;2023-06-19T15:05:55;37.80;96.70
14008;DHT22;61651;45.508;12.232;2023-06-19T15:08:57;37.60;96.20
14008;DHT22;61651;45.508;12.232;2023-06-19T15:11:59;37.40;96.40
14008;DHT22;61651;45.508;12.232;2023-06-19T15:15:01;37.20;96.60
14008;DHT22;61651;45.508;12.232;2023-06-19T15:18:03;37.20;97.10
14008;DHT22;61651;45.508;12.232;2023-06-19T15:21:09;37.20;97.70
14008;DHT22;61651;45.508;12.232;2023-06-19T15:24:10;37.00;96.80
14008;DHT22;61651;45.508;12.232;2023-06-19T15:27:13;37.00;97.30
14008;DHT22;61651;45.508;12.232;2023-06-19T15:30:14;36.90;97.20
14008;DHT22;61651;45.508;12.232;2023-06-19T15:33:16;36.70;96.90
14008;DHT22;61651;45.508;12.232;2023-06-19T15:36:20;36.50;97.70
14008;DHT22;61651;45.508;12.232;2023-06-19T15:39:22;36.30;98.00
14008;DHT22;61651;45.508;12.232;2023-06-19T15:42:24;36.00;98.80
14008;DHT22;61651;45.508;12.232;2023-06-19T15:45:26;35.90;98.80
14008;DHT22;61651;45.508;12.232;2023-06-19T15:48:28;35.90;99.40
14008;DHT22;61651;45.508;12.232;2023-06-19T15:51:32;35.90;99.90
14008;DHT22;61651;45.508;12.232;2023-06-19T15:54:34;35.70;99.90
14008;DHT22;61651;45.508;12.232;2023-06-19T15:57:36;35.60;99.90
14008;DHT22;61651;45.508;12.232;2023-06-19T16:00:38;35.30;99.90
14008;DHT22;61651;45.508;12.232;2023-06-19T16:03:40;35.20;99.90
14008;DHT22;61651;45.508;12.232;2023-06-19T16:06:43;35.10;99.90
14008;DHT22;61651;45.508;12.232;2023-06-19T16:09:47;34.80;99.90
14008;DHT22;61651;45.508;12.232;2023-06-19T16:12:49;34.60;99.90
14008;DHT22;61651;45.508;12.232;2023-06-19T16:15:51;34.40;99.90
14008;DHT22;61651;45.508;12.232;2023-06-19T16:18:53;34.20;99.90
14008;DHT22;61651;45.508;12.232;2023-06-19T16:21:56;34.00;99.90
14008;DHT22;61651;45.508;12.232;2023-06-19T16:24:58;33.80;99.90
14008;DHT22;61651;45.508;12.232;2023-06-19T16:28:00;33.50;99.90
14008;DHT22;61651;45.508;12.232;2023-06-19T16:31:02;33.30;99.90
14008;DHT22;61651;45.508;12.232;2023-06-19T16:34:04;33.20;99.90
14008;DHT22;61651;45.508;12.232;2023-06-19T16:37:08;33.10;99.90
14008;DHT22;61651;45.508;12.232;2023-06-19T16:40:11;32.90;99.90
14008;DHT22;61651;45.508;12.232;2023-06-19T16:43:13;32.80;99.90
14008;DHT22;61651;45.508;12.232;2023-06-19T16:46:15;32.60;99.90
14008;DHT22;61651;45.508;12.232;2023-06-19T16:49:17;32.50;99.90
14008;DHT22;61651;45.508;12.232;2023-06-19T16:52:20;32.40;99.90
14008;DHT22;61651;45.508;12.232;2023-06-19T16:55:23;32.20;99.90
14008;DHT22;61651;45.508;12.232;2023-06-19T16:58:25;32.00;99.90
14008;DHT22;61651;45.508;12.232;2023-06-19T17:01:27;31.90;99.90
14008;DHT22;61651;45.508;12.232;2023-06-19T17:04:29;31.80;99.90
14008;DHT22;61651;45.508;12.232;2023-06-19T17:07:32;31.80;99.90
14008;DHT22;61651;45.508;12.232;2023-06-19T17:10:34;31.70;99.90
14008;DHT22;61651;45.508;12.232;2023-06-19T17:13:36;31.60;99.90
14008;DHT22;61651;45.508;12.232;2023-06-19T17:16:38;31.50;99.90
14008;DHT22;61651;45.508;12.232;2023-06-19T17:19:40;31.30;99.90
14008;DHT22;61651;45.508;12.232;2023-06-19T17:22:44;31.20;99.90
14008;DHT22;61651;45.508;12.232;2023-06-19T17:25:47;31.20;99.90
14008;DHT22;61651;45.508;12.232;2023-06-19T17:28:49;31.10;99.90
14008;DHT22;61651;45.508;12.232;2023-06-19T17:31:50;30.80;99.90
14008;DHT22;61651;45.508;12.232;2023-06-19T17:34:52;30.60;99.90
14008;DHT22;61651;45.508;12.232;2023-06-19T17:37:56;30.40;99.90
14008;DHT22;61651;45.508;12.232;2023-06-19T17:40:58;30.10;99.90
14008;DHT22;61651;45.508;12.232;2023-06-19T17:44:02;30.20;99.90
14008;DHT22;61651;45.508;12.232;2023-06-19T17:47:05;30.30;99.90
14008;DHT22;61651;45.508;12.232;2023-06-19T17:50:10;30.30;99.90
14008;DHT22;61651;45.508;12.232;2023-06-19T17:53:14;30.30;99.90
14008;DHT22;61651;45.508;12.232;2023-06-19T17:56:17;30.30;99.90
14008;DHT22;61651;45.508;12.232;2023-06-19T17:59:19;30.30;99.90
14008;DHT22;61651;45.508;12.232;2023-06-19T18:02:21;30.30;99.90
14008;DHT22;61651;45.508;12.232;2023-06-19T18:05:23;30.30;99.90
14008;DHT22;61651;45.508;12.232;2023-06-19T18:08:26;30.30;99.90
14008;DHT22;61651;45.508;12.232;2023-06-19T18:11:28;30.40;99.90
14008;DHT22;61651;45.508;12.232;2023-06-19T18:14:30;30.40;99.90
14008;DHT22;61651;45.508;12.232;2023-06-19T18:17:32;30.50;99.90
14008;DHT22;61651;45.508;12.232;2023-06-19T18:20:34;30.40;99.90
14008;DHT22;61651;45.508;12.232;2023-06-19T18:23:38;30.40;99.90
14008;DHT22;61651;45.508;12.232;2023-06-19T18:26:40;30.40;99.90
14008;DHT22;61651;45.508;12.232;2023-06-19T18:29:42;30.40;99.90
14008;DHT22;61651;45.508;12.232;2023-06-19T18:32:44;30.30;99.90
14008;DHT22;61651;45.508;12.232;2023-06-19T18:35:46;30.30;99.90
14008;DHT22;61651;45.508;12.232;2023-06-19T18:38:49;30.20;99.90
14008;DHT22;61651;45.508;12.232;2023-06-19T18:41:51;30.10;99.90
14008;DHT22;61651;45.508;12.232;2023-06-19T18:44:55;30.10;99.90
14008;DHT22;61651;45.508;12.232;2023-06-19T18:47:57;30.10;99.90
14008;DHT22;61651;45.508;12.232;2023-06-19T18:50:59;30.00;99.90
14008;DHT22;61651;45.508;12.232;2023-06-19T18:54:03;29.90;99.90
14008;DHT22;61651;45.508;12.232;2023-06-19T18:57:05;29.80;99.90
14008;DHT22;61651;45.508;12.232;2023-06-19T19:00:08;29.80;99.90
14008;DHT22;61651;45.508;12.232;2023-06-19T19:03:10;29.60;99.90
14008;DHT22;61651;45.508;12.232;2023-06-19T19:06:12;29.50;99.90
14008;DHT22;61651;45.508;12.232;2023-06-19T19:09:17;29.40;99.90
14008;DHT22;61651;45.508;12.232;2023-06-19T19:12:18;29.40;99.90
14008;DHT22;61651;45.508;12.232;2023-06-19T19:15:21;29.40;99.90
14008;DHT22;61651;45.508;12.232;2023-06-19T19:18:23;29.40;99.90
14008;DHT22;61651;45.508;12.232;2023-06-19T19:21:24;29.40;99.90
14008;DHT22;61651;45.508;12.232;2023-06-19T19:24:28;29.40;99.90
14008;DHT22;61651;45.508;12.232;2023-06-19T19:27:30;29.40;99.90
14008;DHT22;61651;45.508;12.232;2023-06-19T19:30:32;29.40;99.90
14008;DHT22;61651;45.508;12.232;2023-06-19T19:33:34;29.40;99.90
14008;DHT22;61651;45.508;12.232;2023-06-19T19:36:36;29.30;99.90
14008;DHT22;61651;45.508;12.232;2023-06-19T19:39:40;29.30;99.90
14008;DHT22;61651;45.508;12.232;2023-06-19T19:42:41;29.30;99.90
14008;DHT22;61651;45.508;12.232;2023-06-19T19:45:43;29.20;99.90
14008;DHT22;61651;45.508;12.232;2023-06-19T19:48:45;29.20;99.90
14008;DHT22;61651;45.508;12.232;2023-06-19T19:51:47;29.20;99.90
14008;DHT22;61651;45.508;12.232;2023-06-19T19:54:51;29.10;99.90
14008;DHT22;61651;45.508;12.232;2023-06-19T19:57:53;29.00;99.90
14008;DHT22;61651;45.508;12.232;2023-06-19T20:00:55;29.00;99.90
14008;DHT22;61651;45.508;12.232;2023-06-19T20:03:59;29.10;99.90
14008;DHT22;61651;45.508;12.232;2023-06-19T20:07:03;29.00;99.90